sensor_id;sensor_type;location;lat;lon;timestamp;P1;durP1;ratioP1;P2;durP2;ratioP2
20369;SDS011;10344;47.592;9.600;2022-10-20T02:37:37;10.40;;;8.13;;
20369;SDS011;10344;47.592;9.600;2022-10-20T02:40:08;8.80;;;7.55;;
20369;SDS011;10344;47.592;9.600;2022-10-20T02:42:35;8.90;;;7.65;;
20369;SDS011;10344;47.592;9.600;2022-10-20T02:45:05;12.07;;;8.85;;
20369;SDS011;10344;47.592;9.600;2022-10-20T02:47:31;12.63;;;8.90;;
20369;SDS011;10344;47.592;9.600;2022-10-20T02:49:57;10.93;;;8.80;;
20369;SDS011;10344;47.592;9.600;2022-10-20T02:52:22;8.95;;;7.47;;
20369;SDS011;10344;47.592;9.600;2022-10-20T02:54:48;9.88;;;8.18;;
20369;SDS011;10344;47.592;9.600;2022-10-20T02:57:15;8.82;;;7.63;;
20369;SDS011;10344;47.592;9.600;2022-10-20T02:59:40;12.35;;;8.75;;
20369;SDS011;10344;47.592;9.600;2022-10-20T03:02:07;9.30;;;7.57;;
20369;SDS011;10344;47.592;9.600;2022-10-20T03:04:36;9.32;;;8.18;;
20369;SDS011;10344;47.592;9.600;2022-10-20T03:07:01;10.23;;;8.20;;
20369;SDS011;10344;47.592;9.600;2022-10-20T03:09:28;10.65;;;8.10;;
20369;SDS011;10344;47.592;9.600;2022-10-20T03:11:53;12.37;;;8.83;;
20369;SDS011;10344;47.592;9.600;2022-10-20T03:14:22;8.90;;;7.63;;
20369;SDS011;10344;47.592;9.600;2022-10-20T03:16:48;8.13;;;7.15;;
20369;SDS011;10344;47.592;9.600;2022-10-20T03:19:13;14.77;;;9.20;;
20369;SDS011;10344;47.592;9.600;2022-10-20T03:21:39;9.52;;;8.52;;
20369;SDS011;10344;47.592;9.600;2022-10-20T03:24:05;10.15;;;7.50;;
20369;SDS011;10344;47.592;9.600;2022-10-20T03:26:31;10.15;;;8.25;;
20369;SDS011;10344;47.592;9.600;2022-10-20T03:28:57;7.68;;;6.40;;
20369;SDS011;10344;47.592;9.600;2022-10-20T03:31:22;9.77;;;6.93;;
20369;SDS011;10344;47.592;9.600;2022-10-20T03:33:48;10.00;;;7.82;;
20369;SDS011;10344;47.592;9.600;2022-10-20T03:36:16;9.25;;;7.40;;
20369;SDS011;10344;47.592;9.600;2022-10-20T03:38:41;10.43;;;7.75;;
20369;SDS011;10344;47.592;9.600;2022-10-20T03:41:07;8.95;;;7.63;;
20369;SDS011;10344;47.592;9.600;2022-10-20T03:43:33;9.13;;;8.15;;
20369;SDS011;10344;47.592;9.600;2022-10-20T03:46:02;9.25;;;7.65;;
20369;SDS011;10344;47.592;9.600;2022-10-20T03:48:29;13.27;;;8.55;;
20369;SDS011;10344;47.592;9.600;2022-10-20T03:50:58;8.30;;;7.43;;
20369;SDS011;10344;47.592;9.600;2022-10-20T03:53:25;9.25;;;7.28;;
20369;SDS011;10344;47.592;9.600;2022-10-20T03:55:50;7.50;;;6.35;;
20369;SDS011;10344;47.592;9.600;2022-10-20T03:58:16;8.82;;;7.20;;
20369;SDS011;10344;47.592;9.600;2022-10-20T04:00:42;8.05;;;7.22;;
20369;SDS011;10344;47.592;9.600;2022-10-20T04:03:08;7.47;;;6.77;;
20369;SDS011;10344;47.592;9.600;2022-10-20T04:05:33;10.53;;;7.93;;
20369;SDS011;10344;47.592;9.600;2022-10-20T04:07:59;9.93;;;7.73;;
20369;SDS011;10344;47.592;9.600;2022-10-20T04:10:24;10.60;;;8.53;;
20369;SDS011;10344;47.592;9.600;2022-10-20T04:12:50;10.87;;;8.50;;
20369;SDS011;10344;47.592;9.600;2022-10-20T04:15:15;8.07;;;7.23;;
20369;SDS011;10344;47.592;9.600;2022-10-20T04:17:42;8.32;;;7.35;;
20369;SDS011;10344;47.592;9.600;2022-10-20T04:20:08;8.93;;;7.25;;
20369;SDS011;10344;47.592;9.600;2022-10-20T04:22:35;10.73;;;7.87;;
20369;SDS011;10344;47.592;9.600;2022-10-20T04:25:03;9.85;;;7.90;;
20369;SDS011;10344;47.592;9.600;2022-10-20T04:27:28;9.27;;;7.45;;
20369;SDS011;10344;47.592;9.600;2022-10-20T04:29:54;8.60;;;7.20;;
20369;SDS011;10344;47.592;9.600;2022-10-20T04:32:20;11.00;;;8.43;;
20369;SDS011;10344;47.592;9.600;2022-10-20T04:34:45;9.67;;;8.00;;
20369;SDS011;10344;47.592;9.600;2022-10-20T04:37:13;8.67;;;7.60;;
20369;SDS011;10344;47.592;9.600;2022-10-20T04:39:41;10.20;;;8.00;;
20369;SDS011;10344;47.592;9.600;2022-10-20T04:42:11;8.55;;;7.47;;
20369;SDS011;10344;47.592;9.600;2022-10-20T04:44:39;9.63;;;7.45;;
20369;SDS011;10344;47.592;9.600;2022-10-20T04:47:07;11.85;;;8.40;;
20369;SDS011;10344;47.592;9.600;2022-10-20T04:49:34;9.77;;;7.75;;
20369;SDS011;10344;47.592;9.600;2022-10-20T04:52:00;9.97;;;8.27;;
20369;SDS011;10344;47.592;9.600;2022-10-20T04:54:29;10.75;;;8.93;;
20369;SDS011;10344;47.592;9.600;2022-10-20T04:56:54;10.27;;;8.30;;
20369;SDS011;10344;47.592;9.600;2022-10-20T04:59:20;10.53;;;8.13;;
20369;SDS011;10344;47.592;9.600;2022-10-20T05:01:46;7.77;;;6.87;;
20369;SDS011;10344;47.592;9.600;2022-10-20T05:04:13;12.13;;;8.13;;
20369;SDS011;10344;47.592;9.600;2022-10-20T05:06:46;11.82;;;8.35;;
20369;SDS011;10344;47.592;9.600;2022-10-20T05:09:14;10.17;;;8.70;;
20369;SDS011;10344;47.592;9.600;2022-10-20T05:11:40;11.15;;;9.40;;
20369;SDS011;10344;47.592;9.600;2022-10-20T05:14:06;9.18;;;7.63;;
20369;SDS011;10344;47.592;9.600;2022-10-20T05:16:32;10.55;;;8.45;;
20369;SDS011;10344;47.592;9.600;2022-10-20T05:19:00;11.02;;;8.98;;
20369;SDS011;10344;47.592;9.600;2022-10-20T05:21:27;11.43;;;8.70;;
20369;SDS011;10344;47.592;9.600;2022-10-20T05:23:56;10.05;;;8.20;;
20369;SDS011;10344;47.592;9.600;2022-10-20T05:26:23;11.45;;;9.00;;
20369;SDS011;10344;47.592;9.600;2022-10-20T05:28:50;10.23;;;8.45;;
20369;SDS011;10344;47.592;9.600;2022-10-20T05:31:17;11.30;;;8.80;;
20369;SDS011;10344;47.592;9.600;2022-10-20T05:33:45;10.95;;;8.70;;
20369;SDS011;10344;47.592;9.600;2022-10-20T05:36:18;9.48;;;8.20;;
20369;SDS011;10344;47.592;9.600;2022-10-20T05:42:31;11.52;;;8.25;;
20369;SDS011;10344;47.592;9.600;2022-10-20T05:45:33;10.07;;;7.23;;
20369;SDS011;10344;47.592;9.600;2022-10-20T05:49:20;10.07;;;8.48;;
20369;SDS011;10344;47.592;9.600;2022-10-20T05:55:35;12.18;;;9.13;;
20369;SDS011;10344;47.592;9.600;2022-10-20T05:58:41;14.25;;;10.15;;
20369;SDS011;10344;47.592;9.600;2022-10-20T06:05:08;17.35;;;12.52;;
20369;SDS011;10344;47.592;9.600;2022-10-20T06:07:47;14.52;;;10.90;;
20369;SDS011;10344;47.592;9.600;2022-10-20T06:13:47;13.15;;;10.13;;
20369;SDS011;10344;47.592;9.600;2022-10-20T06:16:38;13.10;;;10.07;;
20369;SDS011;10344;47.592;9.600;2022-10-20T06:19:04;12.65;;;9.02;;
20369;SDS011;10344;47.592;9.600;2022-10-20T06:21:32;15.68;;;10.23;;
20369;SDS011;10344;47.592;9.600;2022-10-20T06:24:20;14.23;;;10.23;;
20369;SDS011;10344;47.592;9.600;2022-10-20T06:27:14;13.35;;;10.43;;
20369;SDS011;10344;47.592;9.600;2022-10-20T06:29:58;14.45;;;10.00;;
20369;SDS011;10344;47.592;9.600;2022-10-20T06:32:26;14.05;;;10.30;;
20369;SDS011;10344;47.592;9.600;2022-10-20T06:35:04;17.00;;;11.07;;
20369;SDS011;10344;47.592;9.600;2022-10-20T06:37:35;17.83;;;11.00;;
20369;SDS011;10344;47.592;9.600;2022-10-20T06:43:06;12.70;;;10.00;;
20369;SDS011;10344;47.592;9.600;2022-10-20T06:45:33;13.93;;;10.05;;
20369;SDS011;10344;47.592;9.600;2022-10-20T06:47:59;15.50;;;10.77;;
20369;SDS011;10344;47.592;9.600;2022-10-20T06:50:27;13.77;;;10.43;;
20369;SDS011;10344;47.592;9.600;2022-10-20T06:52:58;16.17;;;10.95;;
20369;SDS011;10344;47.592;9.600;2022-10-20T06:55:32;13.90;;;9.57;;
20369;SDS011;10344;47.592;9.600;2022-10-20T07:00:58;14.50;;;10.40;;
20369;SDS011;10344;47.592;9.600;2022-10-20T07:03:33;11.13;;;8.68;;
20369;SDS011;10344;47.592;9.600;2022-10-20T07:06:00;12.07;;;9.18;;
20369;SDS011;10344;47.592;9.600;2022-10-20T07:08:27;12.40;;;9.52;;
20369;SDS011;10344;47.592;9.600;2022-10-20T07:11:08;9.53;;;8.53;;
20369;SDS011;10344;47.592;9.600;2022-10-20T07:13:36;9.80;;;8.07;;
20369;SDS011;10344;47.592;9.600;2022-10-20T07:16:02;8.98;;;7.55;;
20369;SDS011;10344;47.592;9.600;2022-10-20T07:18:34;8.75;;;7.10;;
20369;SDS011;10344;47.592;9.600;2022-10-20T07:21:57;7.55;;;6.30;;
20369;SDS011;10344;47.592;9.600;2022-10-20T07:24:49;7.03;;;6.30;;
20369;SDS011;10344;47.592;9.600;2022-10-20T07:38:05;7.35;;;5.22;;
20369;SDS011;10344;47.592;9.600;2022-10-20T07:40:59;5.87;;;5.27;;
20369;SDS011;10344;47.592;9.600;2022-10-20T07:43:26;5.88;;;5.28;;
20369;SDS011;10344;47.592;9.600;2022-10-20T07:45:52;6.03;;;5.43;;
20369;SDS011;10344;47.592;9.600;2022-10-20T07:48:17;6.20;;;5.43;;
20369;SDS011;10344;47.592;9.600;2022-10-20T07:50:43;6.43;;;5.50;;
20369;SDS011;10344;47.592;9.600;2022-10-20T07:53:08;8.32;;;6.20;;
20369;SDS011;10344;47.592;9.600;2022-10-20T07:55:37;7.40;;;6.50;;
20369;SDS011;10344;47.592;9.600;2022-10-20T07:58:02;9.00;;;7.25;;
20369;SDS011;10344;47.592;9.600;2022-10-20T08:00:30;10.77;;;7.90;;
20369;SDS011;10344;47.592;9.600;2022-10-20T08:02:56;9.00;;;7.97;;
20369;SDS011;10344;47.592;9.600;2022-10-20T08:05:21;9.67;;;7.23;;
20369;SDS011;10344;47.592;9.600;2022-10-20T08:07:47;8.38;;;7.38;;
20369;SDS011;10344;47.592;9.600;2022-10-20T08:10:12;8.25;;;6.55;;
20369;SDS011;10344;47.592;9.600;2022-10-20T08:12:38;6.30;;;5.50;;
20369;SDS011;10344;47.592;9.600;2022-10-20T08:15:04;6.80;;;5.00;;
20369;SDS011;10344;47.592;9.600;2022-10-20T08:17:30;5.38;;;4.88;;
20369;SDS011;10344;47.592;9.600;2022-10-20T08:19:58;6.10;;;5.50;;
20369;SDS011;10344;47.592;9.600;2022-10-20T08:22:25;5.30;;;4.80;;
20369;SDS011;10344;47.592;9.600;2022-10-20T08:24:51;7.50;;;6.07;;
20369;SDS011;10344;47.592;9.600;2022-10-20T08:27:19;6.30;;;5.70;;
20369;SDS011;10344;47.592;9.600;2022-10-20T08:29:45;6.70;;;6.07;;
20369;SDS011;10344;47.592;9.600;2022-10-20T08:32:10;8.63;;;6.53;;
20369;SDS011;10344;47.592;9.600;2022-10-20T08:34:38;6.57;;;5.75;;
20369;SDS011;10344;47.592;9.600;2022-10-20T08:37:04;8.10;;;7.18;;
20369;SDS011;10344;47.592;9.600;2022-10-20T08:39:29;8.00;;;7.10;;
20369;SDS011;10344;47.592;9.600;2022-10-20T08:41:55;9.73;;;7.10;;
20369;SDS011;10344;47.592;9.600;2022-10-20T08:44:25;9.90;;;7.20;;
20369;SDS011;10344;47.592;9.600;2022-10-20T08:46:55;8.98;;;7.72;;
20369;SDS011;10344;47.592;9.600;2022-10-20T08:49:27;9.97;;;7.80;;
20369;SDS011;10344;47.592;9.600;2022-10-20T08:51:56;9.55;;;7.25;;
20369;SDS011;10344;47.592;9.600;2022-10-20T08:54:22;8.77;;;7.55;;
20369;SDS011;10344;47.592;9.600;2022-10-20T08:56:49;8.23;;;7.05;;
20369;SDS011;10344;47.592;9.600;2022-10-20T09:01:52;10.63;;;7.38;;
20369;SDS011;10344;47.592;9.600;2022-10-20T09:04:33;9.63;;;7.37;;
20369;SDS011;10344;47.592;9.600;2022-10-20T09:07:03;9.63;;;7.68;;
20369;SDS011;10344;47.592;9.600;2022-10-20T09:09:42;11.60;;;7.45;;
20369;SDS011;10344;47.592;9.600;2022-10-20T09:12:10;9.40;;;7.43;;
20369;SDS011;10344;47.592;9.600;2022-10-20T09:14:39;11.23;;;8.50;;
20369;SDS011;10344;47.592;9.600;2022-10-20T09:17:05;10.32;;;8.20;;
20369;SDS011;10344;47.592;9.600;2022-10-20T09:19:47;9.80;;;8.23;;
20369;SDS011;10344;47.592;9.600;2022-10-20T09:22:19;11.00;;;7.75;;
20369;SDS011;10344;47.592;9.600;2022-10-20T09:24:46;12.57;;;9.05;;
20369;SDS011;10344;47.592;9.600;2022-10-20T09:27:18;11.30;;;9.15;;
20369;SDS011;10344;47.592;9.600;2022-10-20T09:29:46;12.15;;;9.40;;
20369;SDS011;10344;47.592;9.600;2022-10-20T09:32:16;12.00;;;8.93;;
20369;SDS011;10344;47.592;9.600;2022-10-20T09:37:41;10.52;;;8.48;;
20369;SDS011;10344;47.592;9.600;2022-10-20T09:40:13;10.73;;;8.95;;
20369;SDS011;10344;47.592;9.600;2022-10-20T09:42:41;10.32;;;8.65;;
20369;SDS011;10344;47.592;9.600;2022-10-20T09:47:47;11.45;;;8.90;;
20369;SDS011;10344;47.592;9.600;2022-10-20T09:50:19;11.50;;;8.65;;
20369;SDS011;10344;47.592;9.600;2022-10-20T09:52:51;12.27;;;9.20;;
20369;SDS011;10344;47.592;9.600;2022-10-20T09:55:34;13.60;;;9.47;;
20369;SDS011;10344;47.592;9.600;2022-10-20T09:58:03;13.73;;;9.88;;
20369;SDS011;10344;47.592;9.600;2022-10-20T10:00:30;12.80;;;9.55;;
20369;SDS011;10344;47.592;9.600;2022-10-20T10:03:07;11.65;;;8.75;;
20369;SDS011;10344;47.592;9.600;2022-10-20T10:05:33;14.13;;;9.40;;
20369;SDS011;10344;47.592;9.600;2022-10-20T10:08:02;10.88;;;8.25;;
20369;SDS011;10344;47.592;9.600;2022-10-20T10:10:28;13.05;;;9.45;;
20369;SDS011;10344;47.592;9.600;2022-10-20T10:12:58;12.57;;;10.05;;
20369;SDS011;10344;47.592;9.600;2022-10-20T10:15:32;12.50;;;9.98;;
20369;SDS011;10344;47.592;9.600;2022-10-20T10:18:11;13.50;;;10.23;;
20369;SDS011;10344;47.592;9.600;2022-10-20T10:20:39;12.27;;;8.88;;
20369;SDS011;10344;47.592;9.600;2022-10-20T10:23:22;13.75;;;10.20;;
20369;SDS011;10344;47.592;9.600;2022-10-20T10:25:50;11.90;;;9.13;;
20369;SDS011;10344;47.592;9.600;2022-10-20T10:36:37;14.75;;;9.93;;
20369;SDS011;10344;47.592;9.600;2022-10-20T10:39:06;12.55;;;10.38;;
20369;SDS011;10344;47.592;9.600;2022-10-20T10:46:58;13.57;;;10.52;;
20369;SDS011;10344;47.592;9.600;2022-10-20T10:52:07;15.75;;;11.85;;
20369;SDS011;10344;47.592;9.600;2022-10-20T10:57:42;15.30;;;11.38;;
20369;SDS011;10344;47.592;9.600;2022-10-20T11:00:16;14.27;;;10.75;;
20369;SDS011;10344;47.592;9.600;2022-10-20T11:08:32;13.30;;;9.60;;
20369;SDS011;10344;47.592;9.600;2022-10-20T11:13:39;13.73;;;10.53;;
20369;SDS011;10344;47.592;9.600;2022-10-20T11:24:38;14.27;;;10.13;;
20369;SDS011;10344;47.592;9.600;2022-10-20T11:27:13;13.33;;;9.13;;
20369;SDS011;10344;47.592;9.600;2022-10-20T11:29:48;12.30;;;9.57;;
20369;SDS011;10344;47.592;9.600;2022-10-20T11:37:44;13.07;;;10.40;;
20369;SDS011;10344;47.592;9.600;2022-10-20T11:45:50;12.30;;;9.48;;
20369;SDS011;10344;47.592;9.600;2022-10-20T11:48:23;14.75;;;10.27;;
20369;SDS011;10344;47.592;9.600;2022-10-20T12:04:40;11.63;;;9.37;;
20369;SDS011;10344;47.592;9.600;2022-10-20T12:10:14;11.73;;;10.13;;
20369;SDS011;10344;47.592;9.600;2022-10-20T12:15:46;15.63;;;10.80;;
20369;SDS011;10344;47.592;9.600;2022-10-20T12:18:30;14.13;;;10.23;;
20369;SDS011;10344;47.592;9.600;2022-10-20T12:21:00;13.32;;;10.77;;
20369;SDS011;10344;47.592;9.600;2022-10-20T12:39:48;13.10;;;10.55;;
20369;SDS011;10344;47.592;9.600;2022-10-20T12:42:19;13.43;;;10.73;;
20369;SDS011;10344;47.592;9.600;2022-10-20T12:44:46;13.45;;;10.07;;
20369;SDS011;10344;47.592;9.600;2022-10-20T12:47:20;12.48;;;9.27;;
20369;SDS011;10344;47.592;9.600;2022-10-20T12:49:55;13.25;;;10.25;;
20369;SDS011;10344;47.592;9.600;2022-10-20T12:52:35;13.82;;;10.27;;
20369;SDS011;10344;47.592;9.600;2022-10-20T12:57:38;12.52;;;9.48;;
20369;SDS011;10344;47.592;9.600;2022-10-20T13:15:28;10.95;;;9.20;;
20369;SDS011;10344;47.592;9.600;2022-10-20T13:18:11;12.23;;;9.85;;
20369;SDS011;10344;47.592;9.600;2022-10-20T13:29:26;12.40;;;9.70;;
20369;SDS011;10344;47.592;9.600;2022-10-20T13:34:48;14.65;;;10.07;;
20369;SDS011;10344;47.592;9.600;2022-10-20T13:37:33;13.10;;;9.90;;
20369;SDS011;10344;47.592;9.600;2022-10-20T13:51:05;10.53;;;8.60;;
20369;SDS011;10344;47.592;9.600;2022-10-20T13:53:38;18.40;;;9.52;;
20369;SDS011;10344;47.592;9.600;2022-10-20T13:58:59;11.77;;;8.48;;
20369;SDS011;10344;47.592;9.600;2022-10-20T14:01:29;13.30;;;9.50;;
20369;SDS011;10344;47.592;9.600;2022-10-20T14:03:57;12.02;;;9.50;;
20369;SDS011;10344;47.592;9.600;2022-10-20T14:08:51;11.37;;;8.47;;
20369;SDS011;10344;47.592;9.600;2022-10-20T14:11:23;10.25;;;7.63;;
20369;SDS011;10344;47.592;9.600;2022-10-20T14:13:53;10.07;;;7.47;;
20369;SDS011;10344;47.592;9.600;2022-10-20T14:16:21;10.57;;;7.40;;
20369;SDS011;10344;47.592;9.600;2022-10-20T14:19:04;10.55;;;7.88;;
20369;SDS011;10344;47.592;9.600;2022-10-20T14:21:41;9.10;;;7.85;;
20369;SDS011;10344;47.592;9.600;2022-10-20T14:24:31;13.53;;;7.60;;
20369;SDS011;10344;47.592;9.600;2022-10-20T14:26:57;11.38;;;7.85;;
20369;SDS011;10344;47.592;9.600;2022-10-20T14:29:27;9.23;;;7.22;;
20369;SDS011;10344;47.592;9.600;2022-10-20T14:31:54;9.90;;;7.70;;
20369;SDS011;10344;47.592;9.600;2022-10-20T14:34:27;8.97;;;6.30;;
20369;SDS011;10344;47.592;9.600;2022-10-20T14:36:57;8.82;;;6.13;;
20369;SDS011;10344;47.592;9.600;2022-10-20T14:39:31;7.68;;;6.55;;
20369;SDS011;10344;47.592;9.600;2022-10-20T14:41:58;7.97;;;5.95;;
20369;SDS011;10344;47.592;9.600;2022-10-20T14:44:25;10.38;;;8.00;;
20369;SDS011;10344;47.592;9.600;2022-10-20T14:46:57;11.65;;;9.25;;
20369;SDS011;10344;47.592;9.600;2022-10-20T14:49:29;9.98;;;7.68;;
20369;SDS011;10344;47.592;9.600;2022-10-20T14:52:17;11.43;;;9.13;;
20369;SDS011;10344;47.592;9.600;2022-10-20T14:54:46;9.75;;;7.13;;
20369;SDS011;10344;47.592;9.600;2022-10-20T15:02:25;9.48;;;7.22;;
20369;SDS011;10344;47.592;9.600;2022-10-20T15:04:53;11.07;;;8.00;;
20369;SDS011;10344;47.592;9.600;2022-10-20T15:07:25;8.97;;;7.40;;
20369;SDS011;10344;47.592;9.600;2022-10-20T15:09:59;8.02;;;7.15;;
20369;SDS011;10344;47.592;9.600;2022-10-20T15:12:31;9.88;;;6.72;;
20369;SDS011;10344;47.592;9.600;2022-10-20T15:17:35;9.00;;;6.63;;
20369;SDS011;10344;47.592;9.600;2022-10-20T15:25:28;9.88;;;6.30;;
20369;SDS011;10344;47.592;9.600;2022-10-20T15:27:57;7.70;;;5.83;;
20369;SDS011;10344;47.592;9.600;2022-10-20T15:30:24;7.28;;;5.82;;
20369;SDS011;10344;47.592;9.600;2022-10-20T15:32:50;7.90;;;5.73;;
20369;SDS011;10344;47.592;9.600;2022-10-20T15:35:18;7.57;;;6.30;;
20369;SDS011;10344;47.592;9.600;2022-10-20T15:37:50;9.05;;;6.68;;
20369;SDS011;10344;47.592;9.600;2022-10-20T15:40:20;6.72;;;5.75;;
20369;SDS011;10344;47.592;9.600;2022-10-20T15:42:46;8.27;;;5.65;;
20369;SDS011;10344;47.592;9.600;2022-10-20T15:45:16;8.13;;;6.32;;
20369;SDS011;10344;47.592;9.600;2022-10-20T15:47:44;9.55;;;7.28;;
20369;SDS011;10344;47.592;9.600;2022-10-20T15:50:10;10.03;;;7.03;;
20369;SDS011;10344;47.592;9.600;2022-10-20T15:52:36;8.33;;;7.10;;
20369;SDS011;10344;47.592;9.600;2022-10-20T15:55:09;7.13;;;6.03;;
20369;SDS011;10344;47.592;9.600;2022-10-20T15:57:57;7.38;;;5.70;;
20369;SDS011;10344;47.592;9.600;2022-10-20T16:00:23;7.57;;;6.03;;
20369;SDS011;10344;47.592;9.600;2022-10-20T16:02:51;9.40;;;6.63;;
20369;SDS011;10344;47.592;9.600;2022-10-20T16:05:17;9.50;;;7.00;;
20369;SDS011;10344;47.592;9.600;2022-10-20T16:07:47;8.85;;;6.50;;
20369;SDS011;10344;47.592;9.600;2022-10-20T16:10:14;9.67;;;7.10;;
20369;SDS011;10344;47.592;9.600;2022-10-20T16:12:40;7.47;;;6.25;;
20369;SDS011;10344;47.592;9.600;2022-10-20T16:15:06;8.90;;;6.43;;
20369;SDS011;10344;47.592;9.600;2022-10-20T16:17:33;7.38;;;6.35;;
20369;SDS011;10344;47.592;9.600;2022-10-20T16:19:59;8.30;;;6.28;;
20369;SDS011;10344;47.592;9.600;2022-10-20T16:22:24;9.40;;;6.30;;
20369;SDS011;10344;47.592;9.600;2022-10-20T16:24:50;11.90;;;7.90;;
20369;SDS011;10344;47.592;9.600;2022-10-20T16:27:19;9.68;;;6.38;;
20369;SDS011;10344;47.592;9.600;2022-10-20T16:29:49;17.50;;;10.02;;
20369;SDS011;10344;47.592;9.600;2022-10-20T16:32:14;12.15;;;7.18;;
20369;SDS011;10344;47.592;9.600;2022-10-20T16:34:40;10.77;;;7.33;;
20369;SDS011;10344;47.592;9.600;2022-10-20T16:37:05;13.52;;;7.93;;
20369;SDS011;10344;47.592;9.600;2022-10-20T16:39:31;16.90;;;8.23;;
20369;SDS011;10344;47.592;9.600;2022-10-20T16:41:57;27.40;;;11.53;;
20369;SDS011;10344;47.592;9.600;2022-10-20T16:44:22;30.57;;;11.93;;
20369;SDS011;10344;47.592;9.600;2022-10-20T16:46:48;24.83;;;11.40;;
20369;SDS011;10344;47.592;9.600;2022-10-20T16:49:13;27.47;;;12.97;;
20369;SDS011;10344;47.592;9.600;2022-10-20T16:51:39;24.83;;;12.43;;
20369;SDS011;10344;47.592;9.600;2022-10-20T16:54:07;17.15;;;10.18;;
20369;SDS011;10344;47.592;9.600;2022-10-20T16:56:33;17.55;;;10.32;;
20369;SDS011;10344;47.592;9.600;2022-10-20T16:59:00;21.15;;;11.18;;
20369;SDS011;10344;47.592;9.600;2022-10-20T17:01:29;18.70;;;11.00;;
20369;SDS011;10344;47.592;9.600;2022-10-20T17:03:55;20.73;;;12.40;;
20369;SDS011;10344;47.592;9.600;2022-10-20T17:06:23;17.42;;;10.77;;
20369;SDS011;10344;47.592;9.600;2022-10-20T17:08:59;21.70;;;11.90;;
20369;SDS011;10344;47.592;9.600;2022-10-20T17:14:21;17.77;;;10.90;;
20369;SDS011;10344;47.592;9.600;2022-10-20T17:58:52;13.93;;;10.90;;
20369;SDS011;10344;47.592;9.600;2022-10-20T18:16:41;17.55;;;12.13;;
20369;SDS011;10344;47.592;9.600;2022-10-20T18:20:06;16.77;;;11.82;;
20369;SDS011;10344;47.592;9.600;2022-10-20T18:33:40;15.10;;;12.05;;
20369;SDS011;10344;47.592;9.600;2022-10-20T18:47:18;17.40;;;14.30;;
20369;SDS011;10344;47.592;9.600;2022-10-20T19:00:33;19.73;;;14.80;;
20369;SDS011;10344;47.592;9.600;2022-10-20T19:07:10;21.00;;;14.88;;
20369;SDS011;10344;47.592;9.600;2022-10-20T19:17:03;21.00;;;14.90;;
20369;SDS011;10344;47.592;9.600;2022-10-20T19:20:07;17.33;;;12.60;;
20369;SDS011;10344;47.592;9.600;2022-10-20T19:23:16;23.87;;;16.23;;
20369;SDS011;10344;47.592;9.600;2022-10-20T19:26:19;18.98;;;13.43;;
20369;SDS011;10344;47.592;9.600;2022-10-20T19:29:29;19.10;;;14.60;;
20369;SDS011;10344;47.592;9.600;2022-10-20T19:33:00;43.88;;;30.55;;
20369;SDS011;10344;47.592;9.600;2022-10-20T19:36:17;27.17;;;20.10;;
20369;SDS011;10344;47.592;9.600;2022-10-20T19:39:50;17.92;;;13.73;;
20369;SDS011;10344;47.592;9.600;2022-10-20T19:42:21;17.83;;;12.75;;
20369;SDS011;10344;47.592;9.600;2022-10-20T19:45:13;13.32;;;10.88;;
20369;SDS011;10344;47.592;9.600;2022-10-20T19:47:45;17.30;;;13.73;;
20369;SDS011;10344;47.592;9.600;2022-10-20T19:50:19;22.23;;;14.98;;
20369;SDS011;10344;47.592;9.600;2022-10-20T19:53:18;18.63;;;14.60;;
20369;SDS011;10344;47.592;9.600;2022-10-20T19:55:50;19.15;;;14.80;;
20369;SDS011;10344;47.592;9.600;2022-10-20T19:58:45;15.65;;;12.27;;
20369;SDS011;10344;47.592;9.600;2022-10-20T20:01:26;17.33;;;12.98;;
20369;SDS011;10344;47.592;9.600;2022-10-20T20:04:19;19.92;;;13.52;;
20369;SDS011;10344;47.592;9.600;2022-10-20T20:06:54;18.95;;;15.45;;
20369;SDS011;10344;47.592;9.600;2022-10-20T20:09:37;19.98;;;14.23;;
20369;SDS011;10344;47.592;9.600;2022-10-20T20:12:27;21.13;;;14.98;;
20369;SDS011;10344;47.592;9.600;2022-10-20T20:15:16;22.17;;;16.35;;
20369;SDS011;10344;47.592;9.600;2022-10-20T20:18:06;23.20;;;16.80;;
20369;SDS011;10344;47.592;9.600;2022-10-20T20:20:40;24.45;;;17.58;;
20369;SDS011;10344;47.592;9.600;2022-10-20T20:23:10;21.10;;;16.07;;
20369;SDS011;10344;47.592;9.600;2022-10-20T20:25:44;23.13;;;17.17;;
20369;SDS011;10344;47.592;9.600;2022-10-20T20:28:30;22.77;;;16.65;;
20369;SDS011;10344;47.592;9.600;2022-10-20T20:31:07;19.67;;;15.05;;
20369;SDS011;10344;47.592;9.600;2022-10-20T20:34:08;18.65;;;14.85;;
20369;SDS011;10344;47.592;9.600;2022-10-20T20:36:49;18.35;;;14.32;;
20369;SDS011;10344;47.592;9.600;2022-10-20T20:39:17;18.52;;;14.10;;
20369;SDS011;10344;47.592;9.600;2022-10-20T20:41:53;17.47;;;14.17;;
20369;SDS011;10344;47.592;9.600;2022-10-20T20:44:28;19.75;;;14.98;;
20369;SDS011;10344;47.592;9.600;2022-10-20T20:46:58;23.80;;;16.58;;
20369;SDS011;10344;47.592;9.600;2022-10-20T20:49:25;21.92;;;14.77;;
20369;SDS011;10344;47.592;9.600;2022-10-20T20:51:53;19.55;;;14.95;;
20369;SDS011;10344;47.592;9.600;2022-10-20T20:54:28;19.58;;;15.55;;
20369;SDS011;10344;47.592;9.600;2022-10-20T20:56:58;19.47;;;15.00;;
20369;SDS011;10344;47.592;9.600;2022-10-20T20:59:28;19.23;;;15.25;;
20369;SDS011;10344;47.592;9.600;2022-10-20T21:01:57;23.00;;;16.77;;
20369;SDS011;10344;47.592;9.600;2022-10-20T21:04:25;22.77;;;16.08;;
20369;SDS011;10344;47.592;9.600;2022-10-20T21:07:15;20.02;;;15.70;;
20369;SDS011;10344;47.592;9.600;2022-10-20T21:09:44;18.70;;;13.73;;
20369;SDS011;10344;47.592;9.600;2022-10-20T21:12:13;17.40;;;13.60;;
20369;SDS011;10344;47.592;9.600;2022-10-20T21:15:03;20.98;;;15.00;;
20369;SDS011;10344;47.592;9.600;2022-10-20T21:17:32;20.27;;;16.00;;
20369;SDS011;10344;47.592;9.600;2022-10-20T21:20:13;24.48;;;17.73;;
20369;SDS011;10344;47.592;9.600;2022-10-20T21:22:50;17.02;;;13.82;;
20369;SDS011;10344;47.592;9.600;2022-10-20T21:25:44;20.15;;;15.18;;
20369;SDS011;10344;47.592;9.600;2022-10-20T21:28:19;18.38;;;14.38;;
20369;SDS011;10344;47.592;9.600;2022-10-20T21:30:50;21.70;;;16.20;;
20369;SDS011;10344;47.592;9.600;2022-10-20T21:33:21;18.60;;;13.70;;
20369;SDS011;10344;47.592;9.600;2022-10-20T21:36:09;19.33;;;15.43;;
20369;SDS011;10344;47.592;9.600;2022-10-20T21:38:42;23.13;;;16.02;;
20369;SDS011;10344;47.592;9.600;2022-10-20T21:41:20;24.20;;;17.35;;
20369;SDS011;10344;47.592;9.600;2022-10-20T21:43:51;23.50;;;17.60;;
20369;SDS011;10344;47.592;9.600;2022-10-20T21:46:28;22.42;;;15.60;;
20369;SDS011;10344;47.592;9.600;2022-10-20T21:49:11;21.40;;;14.98;;
20369;SDS011;10344;47.592;9.600;2022-10-20T21:51:42;21.95;;;15.60;;
20369;SDS011;10344;47.592;9.600;2022-10-20T21:54:23;22.60;;;15.52;;
20369;SDS011;10344;47.592;9.600;2022-10-20T21:57:01;24.13;;;16.00;;
20369;SDS011;10344;47.592;9.600;2022-10-20T21:59:28;24.80;;;16.05;;
20369;SDS011;10344;47.592;9.600;2022-10-20T22:01:58;20.85;;;15.00;;
20369;SDS011;10344;47.592;9.600;2022-10-20T22:04:46;19.88;;;14.50;;
20369;SDS011;10344;47.592;9.600;2022-10-20T22:17:54;18.60;;;13.53;;
20369;SDS011;10344;47.592;9.600;2022-10-20T22:22:55;16.05;;;12.68;;
20369;SDS011;10344;47.592;9.600;2022-10-20T22:28:06;16.17;;;12.82;;
20369;SDS011;10344;47.592;9.600;2022-10-20T22:30:34;16.10;;;12.98;;
20369;SDS011;10344;47.592;9.600;2022-10-20T22:33:03;20.43;;;13.00;;
20369;SDS011;10344;47.592;9.600;2022-10-20T22:36:03;17.35;;;13.63;;
20369;SDS011;10344;47.592;9.600;2022-10-20T22:38:29;16.50;;;11.97;;
20369;SDS011;10344;47.592;9.600;2022-10-20T22:40:58;13.43;;;9.97;;
20369;SDS011;10344;47.592;9.600;2022-10-20T22:43:26;14.77;;;11.43;;